Time;durP1;ratioP1;P1;durP2;ratioP2;P2;SDS_P1;SDS_P2;PMS_P1;PMS_P2;Temp;Humidity;BMP_temperature;BMP_pressure;BME280_temperature;BME280_humidity;BME280_pressure;Samples;Min_cycle;Max_cycle;Signal;HPM_P1;HPM_P2
2023/01/13 00:02:17;;;;;;;2.27;2.13;;;;;;;;;;4980350;28;20577;-88
2023/01/13 00:04:45;;;;;;;2.00;1.90;;;;;;;;;;4966690;28;20221;-81
2023/01/13 00:07:11;;;;;;;2.37;2.17;;;;;;;;;;4980941;28;20230;-87
2023/01/13 00:09:37;;;;;;;2.10;1.63;;;;;;;;;;4949214;28;20237;-87
2023/01/13 00:12:04;;;;;;;2.60;1.90;;;;;;;;;;4971599;28;20236;-85
2023/01/13 00:14:33;;;;;;;1.80;1.70;;;;;;;;;;4987517;28;20231;-82
2023/01/13 00:17:02;;;;;;;1.70;1.60;;;;;;;;;;4988812;28;20237;-89
2023/01/13 00:19:30;;;;;;;1.90;1.80;;;;;;;;;;4936252;28;20222;-85
2023/01/13 00:21:56;;;;;;;1.63;1.53;;;;;;;;;;4992247;28;20320;-88
2023/01/13 00:24:21;;;;;;;1.73;1.60;;;;;;;;;;4974690;28;20229;-88
2023/01/13 00:26:49;;;;;;;1.93;1.73;;;;;;;;;;4958139;28;20232;-86
2023/01/13 00:29:15;;;;;;;1.77;1.60;;;;;;;;;;4956545;28;20225;-90
2023/01/13 00:31:40;;;;;;;2.60;1.63;;;;;;;;;;4963096;28;20721;-85
2023/01/13 00:34:11;;;;;;;1.47;1.43;;;;;;;;;;4956467;28;20235;-89
2023/01/13 00:36:39;;;;;;;2.33;1.77;;;;;;;;;;4950021;28;20233;-84
2023/01/13 00:39:10;;;;;;;1.70;1.60;;;;;;;;;;4947368;28;20213;-86
2023/01/13 00:44:22;;;;;;;1.53;1.43;;;;;;;;;;4967499;28;20295;-84
2023/01/13 00:46:47;;;;;;;0.80;0.80;;;;;;;;;;4965200;28;20232;-86
2023/01/13 00:49:13;;;;;;;0.70;0.33;;;;;;;;;;4983432;28;20229;-84
2023/01/13 00:51:38;;;;;;;1.00;0.30;;;;;;;;;;5000405;28;20217;-85
2023/01/13 00:54:06;;;;;;;4.80;0.93;;;;;;;;;;4962756;28;20233;-87
2023/01/13 00:56:32;;;;;;;0.83;0.30;;;;;;;;;;4952650;28;20286;-88
2023/01/13 00:58:57;;;;;;;1.10;0.40;;;;;;;;;;4944360;28;20217;-88
2023/01/13 01:01:23;;;;;;;0.90;0.47;;;;;;;;;;4963789;28;20299;-87
2023/01/13 01:03:49;;;;;;;0.93;0.40;;;;;;;;;;4964822;28;20248;-86
2023/01/13 01:06:19;;;;;;;0.50;0.40;;;;;;;;;;4979487;28;20257;-86
2023/01/13 01:08:45;;;;;;;1.17;0.87;;;;;;;;;;4951576;28;20224;-87
2023/01/13 01:11:13;;;;;;;0.90;0.40;;;;;;;;;;4968225;28;20256;-86
2023/01/13 01:13:43;;;;;;;0.00;0.00;;;;;;;;;;4964995;28;20226;-88
2023/01/13 01:16:15;;;;;;;0.00;0.00;;;;;;;;;;4978955;28;20229;-87
2023/01/13 01:18:45;;;;;;;0.10;0.10;;;;;;;;;;4981714;28;20249;-86
2023/01/13 01:21:13;;;;;;;0.20;0.20;;;;;;;;;;4952192;28;20233;-88
2023/01/13 01:23:38;;;;;;;0.10;0.10;;;;;;;;;;4964421;28;20241;-87
2023/01/13 01:26:15;;;;;;;0.10;0.10;;;;;;;;;;4991531;28;20225;-85
2023/01/13 01:28:40;;;;;;;0.10;0.10;;;;;;;;;;4969067;28;20271;-85
2023/01/13 01:31:27;;;;;;;0.00;0.00;;;;;;;;;;4954860;28;20707;-87
2023/01/13 01:33:56;;;;;;;0.10;0.10;;;;;;;;;;4967624;28;20228;-86
2023/01/13 01:36:27;;;;;;;0.10;0.10;;;;;;;;;;4982988;28;20233;-87
2023/01/13 01:38:55;;;;;;;0.10;0.10;;;;;;;;;;4958022;28;20348;-85
2023/01/13 01:41:22;;;;;;;0.30;0.30;;;;;;;;;;4962639;28;20236;-87
2023/01/13 01:44:01;;;;;;;0.63;0.63;;;;;;;;;;4980373;28;20657;-88
2023/01/13 01:46:37;;;;;;;0.40;0.40;;;;;;;;;;4976331;28;20287;-86
2023/01/13 01:49:29;;;;;;;3.10;0.63;;;;;;;;;;4961090;28;20255;-90
2023/01/13 01:52:05;;;;;;;0.00;0.00;;;;;;;;;;4977688;28;20229;-87
2023/01/13 01:54:42;;;;;;;0.00;0.00;;;;;;;;;;4985338;28;20271;-86
2023/01/13 01:57:11;;;;;;;0.00;0.00;;;;;;;;;;4982343;28;20225;-87
2023/01/13 01:59:36;;;;;;;0.10;0.10;;;;;;;;;;4946929;28;20229;-87
2023/01/13 02:02:05;;;;;;;0.10;0.10;;;;;;;;;;4961777;28;20601;-88
2023/01/13 02:04:33;;;;;;;0.50;0.50;;;;;;;;;;4962731;28;20281;-84
2023/01/13 02:06:59;;;;;;;0.00;0.00;;;;;;;;;;4990015;28;20225;-89
2023/01/13 02:09:27;;;;;;;3.60;1.50;;;;;;;;;;4972306;28;20554;-88
2023/01/13 02:14:39;;;;;;;0.00;0.00;;;;;;;;;;4969963;28;20282;-88
2023/01/13 02:17:23;;;;;;;0.00;0.00;;;;;;;;;;4974230;28;20241;-90
2023/01/13 02:20:45;;;;;;;0.00;0.00;;;;;;;;;;4973984;28;20224;-86
2023/01/13 02:26:16;;;;;;;0.10;0.10;;;;;;;;;;4974836;28;20238;-87
2023/01/13 02:31:47;;;;;;;0.10;0.10;;;;;;;;;;4992631;28;20221;-84
2023/01/13 02:34:19;;;;;;;0.20;0.20;;;;;;;;;;4976358;28;20229;-86
2023/01/13 02:36:50;;;;;;;0.00;0.00;;;;;;;;;;4978463;28;20220;-87
2023/01/13 02:39:25;;;;;;;0.00;0.00;;;;;;;;;;4966744;28;20279;-90
2023/01/13 02:45:01;;;;;;;0.00;0.00;;;;;;;;;;4982088;28;20206;-89
2023/01/13 02:47:29;;;;;;;0.33;0.33;;;;;;;;;;4964498;28;20228;-89
2023/01/13 02:50:02;;;;;;;0.10;0.10;;;;;;;;;;4945034;28;20236;-88
2023/01/13 02:52:39;;;;;;;0.10;0.10;;;;;;;;;;4960312;28;20221;-89
2023/01/13 02:55:13;;;;;;;0.00;0.00;;;;;;;;;;4940885;28;20217;-89
2023/01/13 02:57:39;;;;;;;0.60;0.60;;;;;;;;;;4956906;28;20320;-88
2023/01/13 03:00:07;;;;;;;0.50;0.50;;;;;;;;;;4941115;28;20230;-90
2023/01/13 03:02:32;;;;;;;0.10;0.10;;;;;;;;;;4953943;28;20220;-87
2023/01/13 03:05:00;;;;;;;0.20;0.20;;;;;;;;;;4979685;28;20205;-89
2023/01/13 03:07:47;;;;;;;0.00;0.00;;;;;;;;;;4980403;28;20248;-88
2023/01/13 03:10:19;;;;;;;0.00;0.00;;;;;;;;;;4955437;28;20240;-86
2023/01/13 03:13:06;;;;;;;0.10;0.10;;;;;;;;;;4956621;28;20233;-90
2023/01/13 03:16:03;;;;;;;0.10;0.10;;;;;;;;;;4972958;28;20280;-89
2023/01/13 03:18:49;;;;;;;0.27;0.27;;;;;;;;;;4956574;28;20224;-89
2023/01/13 03:21:24;;;;;;;0.00;0.00;;;;;;;;;;4949854;28;20234;-90
2023/01/13 03:24:19;;;;;;;0.23;0.23;;;;;;;;;;4962993;28;20224;-90
2023/01/13 03:26:50;;;;;;;0.00;0.00;;;;;;;;;;4969397;28;20225;-87
2023/01/13 03:29:17;;;;;;;0.10;0.10;;;;;;;;;;4994279;28;20235;-85
2023/01/13 03:31:47;;;;;;;0.07;0.07;;;;;;;;;;4976156;28;20300;-90
2023/01/13 03:34:14;;;;;;;0.00;0.00;;;;;;;;;;4956482;28;20313;-86
2023/01/13 03:36:40;;;;;;;0.37;0.37;;;;;;;;;;4925458;28;20230;-89
2023/01/13 03:39:12;;;;;;;0.10;0.10;;;;;;;;;;4929743;28;20300;-89
2023/01/13 03:41:48;;;;;;;7.00;1.27;;;;;;;;;;4960167;28;20224;-89
2023/01/13 03:44:30;;;;;;;0.10;0.10;;;;;;;;;;4957787;28;20285;-90
2023/01/13 03:47:00;;;;;;;0.37;0.37;;;;;;;;;;4956671;28;21000;-88
2023/01/13 03:49:33;;;;;;;0.33;0.33;;;;;;;;;;4976999;28;20231;-89
2023/01/13 03:52:02;;;;;;;4.63;1.50;;;;;;;;;;4966349;28;20645;-87
2023/01/13 03:54:30;;;;;;;6.37;1.73;;;;;;;;;;4962066;28;20213;-89
2023/01/13 03:57:07;;;;;;;6.20;1.70;;;;;;;;;;4979885;28;20239;-88
2023/01/13 03:59:36;;;;;;;5.03;1.53;;;;;;;;;;4977349;28;20730;-87
2023/01/13 04:02:06;;;;;;;5.73;1.77;;;;;;;;;;4970990;28;20275;-90
2023/01/13 04:04:35;;;;;;;8.40;2.20;;;;;;;;;;4977248;28;20225;-89
2023/01/13 04:07:24;;;;;;;6.20;1.83;;;;;;;;;;4967501;28;20220;-89
2023/01/13 04:09:56;;;;;;;7.37;2.00;;;;;;;;;;4962442;28;20648;-89
2023/01/13 04:12:25;;;;;;;5.17;1.60;;;;;;;;;;4975002;28;20244;-88
2023/01/13 04:14:51;;;;;;;6.27;1.90;;;;;;;;;;4969785;28;20369;-90
2023/01/13 04:17:17;;;;;;;8.13;2.23;;;;;;;;;;4964025;28;20293;-87
2023/01/13 04:19:42;;;;;;;6.87;2.33;;;;;;;;;;4959714;28;20636;-88
2023/01/13 04:22:12;;;;;;;14.40;2.47;;;;;;;;;;4962090;28;20268;-91
2023/01/13 04:24:38;;;;;;;6.90;2.67;;;;;;;;;;4979256;28;20323;-92
2023/01/13 04:27:05;;;;;;;7.77;2.23;;;;;;;;;;4958397;28;20704;-88
2023/01/13 04:29:31;;;;;;;6.97;2.17;;;;;;;;;;4974974;28;20248;-89
2023/01/13 04:31:56;;;;;;;5.93;2.20;;;;;;;;;;4999045;28;20347;-85
2023/01/13 04:34:22;;;;;;;6.67;2.10;;;;;;;;;;4984664;28;20655;-89
2023/01/13 04:36:50;;;;;;;6.03;2.50;;;;;;;;;;4977615;28;20228;-89
2023/01/13 04:39:15;;;;;;;5.97;2.00;;;;;;;;;;4963976;28;20224;-89
2023/01/13 04:42:01;;;;;;;7.80;2.43;;;;;;;;;;4968739;28;20308;-90
2023/01/13 04:44:26;;;;;;;6.00;2.10;;;;;;;;;;4948710;28;20286;-87
2023/01/13 04:46:52;;;;;;;11.43;2.20;;;;;;;;;;4996442;28;20300;-88
2023/01/13 04:49:20;;;;;;;9.73;2.20;;;;;;;;;;4962340;28;20308;-89
2023/01/13 04:51:46;;;;;;;8.57;1.90;;;;;;;;;;4944383;28;20217;-89
2023/01/13 04:54:15;;;;;;;5.53;2.20;;;;;;;;;;4960916;28;20391;-89
2023/01/13 04:56:40;;;;;;;7.53;1.73;;;;;;;;;;4960856;28;20222;-86
2023/01/13 04:59:07;;;;;;;8.17;2.50;;;;;;;;;;4942402;28;20770;-89
2023/01/13 05:01:33;;;;;;;9.23;2.50;;;;;;;;;;4962005;28;20595;-88
2023/01/13 05:03:58;;;;;;;8.80;2.33;;;;;;;;;;4962700;28;20324;-88
2023/01/13 05:06:24;;;;;;;10.87;2.37;;;;;;;;;;4965874;28;20228;-89
2023/01/13 05:08:51;;;;;;;11.67;2.80;;;;;;;;;;4950144;28;20217;-89
2023/01/13 05:17:03;;;;;;;11.77;2.23;;;;;;;;;;4965960;28;20313;-89
2023/01/13 05:19:37;;;;;;;7.63;2.20;;;;;;;;;;4962627;28;20285;-88
2023/01/13 05:27:36;;;;;;;5.50;1.80;;;;;;;;;;4975021;28;20227;-88
2023/01/13 05:30:02;;;;;;;5.50;1.93;;;;;;;;;;4921498;28;1125233;-87
2023/01/13 05:32:28;;;;;;;3.87;1.73;;;;;;;;;;4953760;28;20684;-90
2023/01/13 05:34:54;;;;;;;10.33;2.77;;;;;;;;;;4945728;28;20232;-90
2023/01/13 05:37:20;;;;;;;8.23;2.33;;;;;;;;;;4983627;28;20237;-89
2023/01/13 05:45:14;;;;;;;8.43;2.23;;;;;;;;;;4969795;28;20214;-90
2023/01/13 05:47:40;;;;;;;8.83;2.40;;;;;;;;;;4941528;28;20730;-88
2023/01/13 05:50:08;;;;;;;9.47;2.23;;;;;;;;;;4944618;28;20225;-88
2023/01/13 05:52:33;;;;;;;8.47;2.57;;;;;;;;;;4943895;28;20222;-87
2023/01/13 05:54:59;;;;;;;7.97;2.73;;;;;;;;;;4984448;28;20307;-88
2023/01/13 05:57:26;;;;;;;8.63;3.17;;;;;;;;;;4963332;28;20225;-88
2023/01/13 05:59:59;;;;;;;11.20;2.90;;;;;;;;;;4972554;28;20308;-90
2023/01/13 06:02:25;;;;;;;10.63;2.70;;;;;;;;;;4965377;28;20252;-89
2023/01/13 06:04:53;;;;;;;9.03;2.87;;;;;;;;;;4945097;28;20229;-89
2023/01/13 06:07:21;;;;;;;12.37;3.10;;;;;;;;;;4964062;28;20227;-87
2023/01/13 06:09:49;;;;;;;10.33;2.60;;;;;;;;;;4959164;28;20229;-87
2023/01/13 06:12:14;;;;;;;9.30;2.70;;;;;;;;;;4959822;28;20221;-88
2023/01/13 06:14:40;;;;;;;9.97;2.77;;;;;;;;;;4975540;28;20232;-89
2023/01/13 06:17:09;;;;;;;10.30;3.20;;;;;;;;;;4963605;28;20361;-87
2023/01/13 06:19:35;;;;;;;8.37;2.83;;;;;;;;;;4968258;28;20356;-87
2023/01/13 06:22:22;;;;;;;23.30;11.87;;;;;;;;;;4959439;28;20319;-89
2023/01/13 06:24:52;;;;;;;17.53;6.40;;;;;;;;;;4971344;28;20304;-87
2023/01/13 06:27:19;;;;;;;8.87;3.93;;;;;;;;;;4957020;28;20241;-89
2023/01/13 06:29:47;;;;;;;11.47;4.00;;;;;;;;;;4961260;28;20685;-87
2023/01/13 06:32:37;;;;;;;8.33;3.50;;;;;;;;;;4945490;28;20291;-89
2023/01/13 06:35:08;;;;;;;11.80;3.73;;;;;;;;;;4972067;28;20928;-87
2023/01/13 06:37:33;;;;;;;13.30;4.70;;;;;;;;;;4957670;28;20233;-87
2023/01/13 06:40:02;;;;;;;7.67;3.23;;;;;;;;;;4964189;28;20225;-89
2023/01/13 06:45:13;;;;;;;9.63;3.00;;;;;;;;;;4964456;28;20321;-89
2023/01/13 06:47:39;;;;;;;10.73;3.07;;;;;;;;;;4959875;28;20248;-87
2023/01/13 06:50:08;;;;;;;12.20;3.23;;;;;;;;;;4974536;28;20241;-90
2023/01/13 06:52:35;;;;;;;9.53;3.43;;;;;;;;;;4967953;28;20287;-88
2023/01/13 06:55:04;;;;;;;10.53;3.10;;;;;;;;;;4973042;28;20232;-86
2023/01/13 06:57:29;;;;;;;11.60;3.10;;;;;;;;;;4999304;28;20734;-88
2023/01/13 06:59:55;;;;;;;13.20;2.90;;;;;;;;;;4954917;28;20231;-88
2023/01/13 07:02:22;;;;;;;9.13;2.93;;;;;;;;;;4971022;28;22233;-87
2023/01/13 07:04:48;;;;;;;10.43;3.03;;;;;;;;;;4965813;28;20217;-87
2023/01/13 07:07:13;;;;;;;9.77;3.17;;;;;;;;;;4964748;28;20248;-89
2023/01/13 07:09:39;;;;;;;9.10;3.03;;;;;;;;;;4978928;28;20251;-87
2023/01/13 07:12:07;;;;;;;9.47;2.40;;;;;;;;;;4969895;28;20798;-88
2023/01/13 07:17:23;;;;;;;8.40;3.10;;;;;;;;;;4967506;28;20287;-89
2023/01/13 07:19:54;;;;;;;12.90;3.77;;;;;;;;;;4963866;28;20308;-88
2023/01/13 07:22:23;;;;;;;10.07;2.77;;;;;;;;;;4971659;28;20308;-89
2023/01/13 07:24:49;;;;;;;14.00;3.13;;;;;;;;;;4953429;28;20221;-87
2023/01/13 07:27:14;;;;;;;14.27;3.20;;;;;;;;;;4962014;28;20366;-88
2023/01/13 07:29:40;;;;;;;13.73;3.50;;;;;;;;;;4975912;28;20289;-89
2023/01/13 07:32:06;;;;;;;9.53;2.97;;;;;;;;;;4961774;28;20234;-85
2023/01/13 07:34:32;;;;;;;7.87;3.00;;;;;;;;;;4964503;28;20225;-84
2023/01/13 07:37:03;;;;;;;8.93;2.90;;;;;;;;;;4973856;28;20259;-88
2023/01/13 07:39:28;;;;;;;10.47;2.83;;;;;;;;;;4965550;28;20300;-89
2023/01/13 07:44:38;;;;;;;7.33;2.63;;;;;;;;;;4969039;28;20233;-86
2023/01/13 07:47:04;;;;;;;9.43;2.93;;;;;;;;;;4963279;28;21227;-89
2023/01/13 07:49:30;;;;;;;7.13;2.77;;;;;;;;;;4975972;28;20229;-88
2023/01/13 07:51:58;;;;;;;10.60;3.07;;;;;;;;;;4967974;28;20256;-88
2023/01/13 07:54:24;;;;;;;8.73;2.33;;;;;;;;;;4963187;28;20755;-88
2023/01/13 07:56:51;;;;;;;10.80;2.93;;;;;;;;;;4974537;28;20298;-88
2023/01/13 07:59:17;;;;;;;12.47;3.17;;;;;;;;;;4951699;28;20660;-87
2023/01/13 08:01:43;;;;;;;12.43;2.90;;;;;;;;;;4971312;28;20222;-87
2023/01/13 08:04:08;;;;;;;10.17;2.60;;;;;;;;;;4944244;28;20230;-86
2023/01/13 08:06:35;;;;;;;9.37;2.93;;;;;;;;;;4988444;28;20276;-87
2023/01/13 08:09:03;;;;;;;12.87;3.20;;;;;;;;;;4968761;28;20233;-86
2023/01/13 08:11:33;;;;;;;18.83;3.40;;;;;;;;;;4978810;28;20597;-89
2023/01/13 08:13:58;;;;;;;7.37;2.90;;;;;;;;;;4953261;28;20598;-86
2023/01/13 08:16:24;;;;;;;13.60;3.13;;;;;;;;;;4947410;28;20222;-87
2023/01/13 08:18:52;;;;;;;10.70;2.73;;;;;;;;;;4958116;28;20225;-88
2023/01/13 08:21:17;;;;;;;8.97;2.37;;;;;;;;;;4971742;28;20225;-87
2023/01/13 08:23:43;;;;;;;16.87;2.83;;;;;;;;;;4961089;28;20220;-89
2023/01/13 08:26:11;;;;;;;8.67;2.53;;;;;;;;;;4985119;28;20238;-87
2023/01/13 08:28:36;;;;;;;8.03;2.97;;;;;;;;;;4953544;28;20248;-88
2023/01/13 08:31:03;;;;;;;10.87;3.20;;;;;;;;;;4973270;28;20229;-87
2023/01/13 08:33:29;;;;;;;6.63;2.50;;;;;;;;;;4949746;28;20304;-88
2023/01/13 08:35:57;;;;;;;9.80;3.30;;;;;;;;;;4945895;28;20273;-86
2023/01/13 08:38:27;;;;;;;9.67;2.80;;;;;;;;;;4987477;28;20246;-86
2023/01/13 08:40:53;;;;;;;6.13;2.03;;;;;;;;;;4983763;28;20227;-84
2023/01/13 08:43:18;;;;;;;6.30;2.57;;;;;;;;;;4968197;28;20221;-87
2023/01/13 08:45:44;;;;;;;6.43;2.27;;;;;;;;;;4969938;28;20298;-85
2023/01/13 08:48:09;;;;;;;13.13;2.60;;;;;;;;;;4972858;28;20256;-86
2023/01/13 08:50:37;;;;;;;8.60;2.57;;;;;;;;;;4965056;28;20229;-83
2023/01/13 08:53:03;;;;;;;6.70;2.47;;;;;;;;;;4980686;28;20233;-84
2023/01/13 08:55:30;;;;;;;7.23;2.30;;;;;;;;;;4973074;28;20229;-83
2023/01/13 08:57:56;;;;;;;5.27;2.23;;;;;;;;;;4982530;28;20750;-87
2023/01/13 09:00:22;;;;;;;4.90;1.57;;;;;;;;;;4964147;28;20279;-86
2023/01/13 09:02:47;;;;;;;8.30;2.10;;;;;;;;;;4953342;28;20266;-85
2023/01/13 09:05:15;;;;;;;7.13;2.13;;;;;;;;;;4966138;28;20232;-85
2023/01/13 09:07:45;;;;;;;7.03;1.90;;;;;;;;;;4983371;28;20217;-85
2023/01/13 09:10:10;;;;;;;10.60;2.20;;;;;;;;;;4985757;28;20851;-89
2023/01/13 09:15:20;;;;;;;5.57;1.80;;;;;;;;;;4964152;28;20265;-88
2023/01/13 09:17:46;;;;;;;7.13;1.93;;;;;;;;;;4966892;28;20237;-87
2023/01/13 09:20:12;;;;;;;7.43;2.30;;;;;;;;;;4974280;28;20229;-87
2023/01/13 09:22:40;;;;;;;8.30;2.10;;;;;;;;;;4973332;28;20224;-90
2023/01/13 09:25:06;;;;;;;3.37;1.60;;;;;;;;;;4947505;28;20229;-87
2023/01/13 09:27:32;;;;;;;8.53;2.10;;;;;;;;;;4950103;28;20225;-87
2023/01/13 09:29:57;;;;;;;6.73;1.60;;;;;;;;;;4965435;28;20655;-87
2023/01/13 09:32:25;;;;;;;6.80;2.00;;;;;;;;;;4978830;28;20300;-88
2023/01/13 09:35:00;;;;;;;6.73;1.77;;;;;;;;;;4955703;28;20227;-85
2023/01/13 09:37:27;;;;;;;6.60;1.73;;;;;;;;;;4971893;28;20310;-88
2023/01/13 09:39:54;;;;;;;6.40;2.00;;;;;;;;;;4963689;28;20296;-86
2023/01/13 09:45:24;;;;;;;6.40;1.73;;;;;;;;;;4986519;28;20216;-88
2023/01/13 09:48:01;;;;;;;5.70;2.07;;;;;;;;;;4989935;28;20239;-87
2023/01/13 09:50:35;;;;;;;6.50;2.10;;;;;;;;;;4979243;28;20229;-87
2023/01/13 09:53:01;;;;;;;6.00;1.73;;;;;;;;;;4993499;28;20290;-87
2023/01/13 09:55:35;;;;;;;3.37;1.60;;;;;;;;;;4969000;28;20239;-87
2023/01/13 09:58:12;;;;;;;6.57;1.70;;;;;;;;;;4944858;28;20225;-87
2023/01/13 10:00:52;;;;;;;7.93;1.90;;;;;;;;;;4974762;28;20220;-88
2023/01/13 10:03:18;;;;;;;7.30;2.00;;;;;;;;;;4969353;28;20221;-90
2023/01/13 10:05:55;;;;;;;6.03;1.73;;;;;;;;;;4999471;28;20761;-90
2023/01/13 10:08:39;;;;;;;4.97;1.70;;;;;;;;;;4967093;28;20225;-86
2023/01/13 10:13:13;;;;;;;4.33;1.60;;;;;;;;;;4973659;28;20221;-85
2023/01/13 10:14:02;;;;;;;5.07;2.00;;;;;;;;;;4990517;28;20300;-88
2023/01/13 10:16:41;;;;;;;5.97;2.20;;;;;;;;;;4989731;28;20237;-87
2023/01/13 10:19:19;;;;;;;7.33;1.87;;;;;;;;;;4957957;28;20226;-83
2023/01/13 10:22:21;;;;;;;5.93;2.00;;;;;;;;;;4989420;28;20287;-86
2023/01/13 10:24:57;;;;;;;7.23;2.17;;;;;;;;;;4991804;28;20905;-87
2023/01/13 10:27:39;;;;;;;7.07;1.80;;;;;;;;;;5017427;28;20240;-85
2023/01/13 10:30:20;;;;;;;5.23;1.90;;;;;;;;;;4974587;28;20221;-88
2023/01/13 10:32:59;;;;;;;4.93;1.77;;;;;;;;;;4972858;28;20222;-88
2023/01/13 10:35:53;;;;;;;4.80;2.10;;;;;;;;;;4951349;28;20755;-88
2023/01/13 10:38:28;;;;;;;8.40;2.47;;;;;;;;;;4965384;28;20265;-89
2023/01/13 10:40:59;;;;;;;4.60;2.03;;;;;;;;;;4974604;28;20252;-85
2023/01/13 10:43:25;;;;;;;5.97;1.67;;;;;;;;;;4946191;28;20234;-90
2023/01/13 10:46:07;;;;;;;5.37;1.53;;;;;;;;;;4988175;28;20221;-88
2023/01/13 10:48:34;;;;;;;6.03;2.00;;;;;;;;;;4969064;28;20226;-89
2023/01/13 10:51:09;;;;;;;4.47;1.70;;;;;;;;;;4988491;28;20677;-83
2023/01/13 10:53:35;;;;;;;6.60;1.87;;;;;;;;;;4963948;28;20217;-85
2023/01/13 10:56:01;;;;;;;9.00;2.00;;;;;;;;;;4967382;28;20216;-85
2023/01/13 10:58:27;;;;;;;2.97;1.80;;;;;;;;;;4978818;28;20648;-82
2023/01/13 11:01:04;;;;;;;3.80;1.60;;;;;;;;;;4998269;28;20201;-88
2023/01/13 11:03:39;;;;;;;4.77;1.47;;;;;;;;;;4980738;28;20229;-86
2023/01/13 11:06:05;;;;;;;6.40;1.70;;;;;;;;;;4980596;28;20252;-89
2023/01/13 11:08:41;;;;;;;4.53;1.90;;;;;;;;;;4989730;28;20209;-86
2023/01/13 11:11:46;;;;;;;6.07;1.90;;;;;;;;;;4983187;28;20263;-88
2023/01/13 11:14:32;;;;;;;5.00;2.20;;;;;;;;;;4982717;28;20225;-88
2023/01/13 11:16:59;;;;;;;6.70;2.00;;;;;;;;;;4960927;28;20233;-88
2023/01/13 11:19:27;;;;;;;4.10;2.10;;;;;;;;;;4984910;28;20221;-88
2023/01/13 11:22:11;;;;;;;5.43;2.03;;;;;;;;;;4971892;28;20315;-88
2023/01/13 11:24:57;;;;;;;5.00;1.90;;;;;;;;;;4966911;28;20316;-88
2023/01/13 11:27:47;;;;;;;3.20;1.60;;;;;;;;;;4976418;28;20315;-87
2023/01/13 11:30:33;;;;;;;6.43;2.13;;;;;;;;;;4985847;28;20229;-87
2023/01/13 11:33:09;;;;;;;4.40;1.70;;;;;;;;;;4957917;28;20470;-86
2023/01/13 11:35:39;;;;;;;5.87;1.83;;;;;;;;;;4993489;28;20240;-84
2023/01/13 11:38:17;;;;;;;5.90;2.07;;;;;;;;;;4988749;28;20225;-87
2023/01/13 11:40:47;;;;;;;8.37;1.97;;;;;;;;;;4983198;28;20217;-89
2023/01/13 11:43:21;;;;;;;8.17;2.00;;;;;;;;;;4962458;28;20229;-85
2023/01/13 11:45:54;;;;;;;3.73;1.80;;;;;;;;;;4978614;28;20251;-83
2023/01/13 11:48:25;;;;;;;8.87;2.20;;;;;;;;;;4977834;28;20229;-87
2023/01/13 11:55:19;;;;;;;4.93;1.60;;;;;;;;;;5003299;28;20715;-86
2023/01/13 11:58:13;;;;;;;5.00;1.70;;;;;;;;;;4987137;28;20335;-85
2023/01/13 12:01:00;;;;;;;3.23;1.70;;;;;;;;;;4991403;28;20302;-86
2023/01/13 12:03:32;;;;;;;4.60;2.17;;;;;;;;;;4999926;28;20244;-85
2023/01/13 12:06:14;;;;;;;6.73;1.80;;;;;;;;;;4973480;28;20764;-86
2023/01/13 12:09:13;;;;;;;5.33;2.00;;;;;;;;;;4996412;28;20224;-85
2023/01/13 12:15:23;;;;;;;7.73;2.40;;;;;;;;;;5018507;28;20707;-86
2023/01/13 12:18:17;;;;;;;4.90;1.77;;;;;;;;;;4999024;28;20709;-87
2023/01/13 12:20:42;;;;;;;5.47;1.80;;;;;;;;;;5009514;28;20249;-88
2023/01/13 12:23:47;;;;;;;6.67;2.23;;;;;;;;;;4981275;28;20234;-85
2023/01/13 12:26:15;;;;;;;5.93;1.90;;;;;;;;;;4967627;28;20233;-87
2023/01/13 12:37:17;;;;;;;7.43;2.07;;;;;;;;;;4873696;29;20321;-87
2023/01/13 12:40:37;;;;;;;7.10;1.83;;;;;;;;;;4888725;29;20277;-85
2023/01/13 12:46:54;;;;;;;9.60;2.17;;;;;;;;;;4914963;23;20695;-80
2023/01/13 12:49:35;;;;;;;7.70;2.30;;;;;;;;;;4940230;28;20245;-79
2023/01/13 12:52:09;;;;;;;9.47;2.30;;;;;;;;;;4961440;28;20289;-79
2023/01/13 12:54:41;;;;;;;5.10;1.70;;;;;;;;;;4963165;28;20234;-77
2023/01/13 12:57:17;;;;;;;9.77;2.40;;;;;;;;;;4943484;28;20326;-77
2023/01/13 13:00:13;;;;;;;7.30;2.97;;;;;;;;;;4957563;28;20236;-76
2023/01/13 13:03:10;;;;;;;5.70;2.17;;;;;;;;;;4940010;28;20257;-76
2023/01/13 13:06:17;;;;;;;7.03;3.47;;;;;;;;;;4975302;28;20262;-77
2023/01/13 13:09:01;;;;;;;6.10;3.03;;;;;;;;;;4962774;28;20597;-78
2023/01/13 13:14:56;;;;;;;5.63;3.80;;;;;;;;;;4933483;28;20230;-79
2023/01/13 13:17:28;;;;;;;8.23;5.17;;;;;;;;;;4951501;28;20238;-77
2023/01/13 13:19:57;;;;;;;5.80;2.60;;;;;;;;;;4941145;28;20227;-76
2023/01/13 13:22:25;;;;;;;7.67;2.60;;;;;;;;;;4948075;28;20307;-78
2023/01/13 13:24:51;;;;;;;3.77;1.80;;;;;;;;;;4955826;28;20789;-78
2023/01/13 13:27:28;;;;;;;5.53;2.43;;;;;;;;;;4943420;28;20274;-78
2023/01/13 13:30:10;;;;;;;5.97;2.40;;;;;;;;;;4939289;28;20250;-79
2023/01/13 13:32:55;;;;;;;6.07;2.00;;;;;;;;;;4959311;28;20244;-76
2023/01/13 13:35:57;;;;;;;5.90;1.87;;;;;;;;;;4946964;28;20231;-77
2023/01/13 13:47:21;;;;;;;5.17;2.23;;;;;;;;;;4957560;28;20219;-77
2023/01/13 13:49:55;;;;;;;7.83;2.50;;;;;;;;;;4942038;28;20758;-78
2023/01/13 13:52:35;;;;;;;6.73;2.13;;;;;;;;;;4942042;28;20235;-78
2023/01/13 13:55:27;;;;;;;4.87;2.20;;;;;;;;;;4959042;28;20637;-77
2023/01/13 13:58:00;;;;;;;8.00;1.90;;;;;;;;;;4942327;28;20621;-77
2023/01/13 14:00:32;;;;;;;6.97;2.27;;;;;;;;;;4927205;28;20312;-80
2023/01/13 14:03:28;;;;;;;6.37;2.10;;;;;;;;;;4971100;28;20724;-78
2023/01/13 14:05:56;;;;;;;5.43;1.67;;;;;;;;;;4950333;28;20257;-77
2023/01/13 14:08:24;;;;;;;6.20;2.03;;;;;;;;;;4932665;28;20211;-77
2023/01/13 14:10:50;;;;;;;5.43;1.57;;;;;;;;;;4956712;28;20454;-78
2023/01/13 14:13:26;;;;;;;5.67;1.73;;;;;;;;;;4946211;28;20231;-78
2023/01/13 14:15:58;;;;;;;4.83;1.77;;;;;;;;;;4948138;28;20310;-76
2023/01/13 14:18:25;;;;;;;4.97;1.67;;;;;;;;;;4944530;28;20226;-77
2023/01/13 14:21:04;;;;;;;4.27;1.67;;;;;;;;;;4941199;28;20230;-76
2023/01/13 14:23:32;;;;;;;4.60;2.20;;;;;;;;;;4951249;28;20867;-77
2023/01/13 14:26:08;;;;;;;9.37;2.13;;;;;;;;;;4931569;29;20273;-77
2023/01/13 14:28:36;;;;;;;3.50;1.73;;;;;;;;;;4942633;28;20226;-78
2023/01/13 14:31:02;;;;;;;6.83;1.80;;;;;;;;;;4959390;28;20222;-78
2023/01/13 14:33:41;;;;;;;5.63;1.77;;;;;;;;;;4948125;28;20238;-77
2023/01/13 14:36:21;;;;;;;6.20;2.37;;;;;;;;;;4955495;28;20219;-78
2023/01/13 14:39:13;;;;;;;5.37;2.63;;;;;;;;;;4943077;28;20242;-77
2023/01/13 14:41:42;;;;;;;6.37;1.97;;;;;;;;;;4928669;28;20305;-77
2023/01/13 14:44:36;;;;;;;4.63;1.70;;;;;;;;;;4942677;28;20604;-77
2023/01/13 14:47:32;;;;;;;3.10;1.50;;;;;;;;;;4950635;28;20233;-77
2023/01/13 14:50:10;;;;;;;5.60;1.93;;;;;;;;;;4929782;28;20297;-79
2023/01/13 14:52:45;;;;;;;6.63;3.50;;;;;;;;;;4977043;28;20231;-81
2023/01/13 14:55:20;;;;;;;10.50;3.90;;;;;;;;;;4930603;28;20290;-79
2023/01/13 14:57:45;;;;;;;9.47;3.20;;;;;;;;;;4950006;28;20231;-80
2023/01/13 15:00:14;;;;;;;4.40;2.40;;;;;;;;;;4944159;28;20337;-77
2023/01/13 15:02:43;;;;;;;8.67;4.20;;;;;;;;;;4961818;28;21872;-78
2023/01/13 15:05:23;;;;;;;9.60;5.53;;;;;;;;;;4985060;28;20209;-79
2023/01/13 15:08:11;;;;;;;3.57;1.97;;;;;;;;;;4962696;28;20250;-77
2023/01/13 15:10:58;;;;;;;5.13;1.83;;;;;;;;;;4979113;28;20246;-78
2023/01/13 15:13:44;;;;;;;4.27;1.83;;;;;;;;;;4950012;28;20767;-78
2023/01/13 15:16:20;;;;;;;4.80;1.97;;;;;;;;;;4945968;28;20227;-77
2023/01/13 15:18:46;;;;;;;5.23;2.30;;;;;;;;;;4978641;28;20708;-78
2023/01/13 15:21:14;;;;;;;6.27;1.80;;;;;;;;;;4951753;28;20235;-80
2023/01/13 15:23:46;;;;;;;4.73;1.90;;;;;;;;;;4938843;28;20313;-82
2023/01/13 15:26:19;;;;;;;6.10;1.50;;;;;;;;;;4931310;28;20313;-78
2023/01/13 15:28:47;;;;;;;2.37;1.20;;;;;;;;;;4959744;28;20238;-79
2023/01/13 15:31:15;;;;;;;4.43;1.67;;;;;;;;;;4937765;28;20215;-79
2023/01/13 15:33:46;;;;;;;3.90;1.63;;;;;;;;;;4947086;28;20654;-80
2023/01/13 15:36:21;;;;;;;5.20;1.97;;;;;;;;;;4950019;28;20245;-78
2023/01/13 15:38:47;;;;;;;3.80;1.53;;;;;;;;;;4951610;28;20312;-77
2023/01/13 15:46:36;;;;;;;5.23;2.37;;;;;;;;;;4921966;28;20268;-78
2023/01/13 15:47:06;;;;;;;5.40;2.90;;;;;;;;;;4932866;28;20705;-78
2023/01/13 15:49:38;;;;;;;8.33;4.10;;;;;;;;;;4957376;28;20235;-79
2023/01/13 15:52:21;;;;;;;3.97;1.90;;;;;;;;;;4954649;28;20226;-78
2023/01/13 15:54:50;;;;;;;5.93;2.37;;;;;;;;;;4956683;28;20230;-80
2023/01/13 15:57:29;;;;;;;5.37;3.47;;;;;;;;;;4939856;28;20232;-79
2023/01/13 15:59:56;;;;;;;5.10;3.20;;;;;;;;;;4949421;28;20223;-79
2023/01/13 16:02:23;;;;;;;8.07;2.60;;;;;;;;;;4946990;28;20230;-80
2023/01/13 16:04:52;;;;;;;4.63;2.00;;;;;;;;;;4966612;28;20227;-79
2023/01/13 16:07:18;;;;;;;5.87;2.80;;;;;;;;;;4949043;28;20752;-79
2023/01/13 16:09:46;;;;;;;8.40;2.40;;;;;;;;;;4956837;28;20278;-80
2023/01/13 16:12:16;;;;;;;6.10;1.70;;;;;;;;;;4953044;28;20227;-81
2023/01/13 16:14:44;;;;;;;5.93;2.00;;;;;;;;;;4948232;28;20231;-80
2023/01/13 16:17:23;;;;;;;5.87;2.40;;;;;;;;;;4978695;28;20247;-80
2023/01/13 16:19:53;;;;;;;5.97;2.10;;;;;;;;;;4958300;28;20223;-80
2023/01/13 16:22:19;;;;;;;6.87;2.00;;;;;;;;;;4971491;28;20219;-79
2023/01/13 16:24:44;;;;;;;6.27;2.30;;;;;;;;;;4950080;28;20248;-81
2023/01/13 16:27:16;;;;;;;3.63;1.73;;;;;;;;;;4955980;28;20227;-79
2023/01/13 16:29:42;;;;;;;5.13;1.73;;;;;;;;;;4950292;28;20227;-76
2023/01/13 16:32:10;;;;;;;7.60;1.97;;;;;;;;;;4951048;28;20635;-77